Todos Santos, Mexico

9:07 PM MDT on August 28, 2015 (GMT -0600)
Upper Las Brisas | | Change Station
CLOSE
Current Station
Personal Weather Station
Location: Todos Santos, BAJA CALIFORNIA SUR
Elevation: 184 ft
Nearby Weather Stations

Elev 184 ft 23.46 °N, 110.24 °W | Updated 3 seconds ago

Mostly Cloudy
Mostly Cloudy
83.3 °F
Feels Like 95 °F
N
4.0
Wind Variable Wind from WNW
Gusts 4.9 mph

Today
High -- | Low -- °F
--% Chance of Precip.
Yesterday
High -- | Low -- °F
Precip. -- in
7:01 AM 7:42 PM
Waxing Gibbous, 99% visible
Pressure 29.79 in
Visibility 12.0 miles
Clouds Mostly Cloudy 25000 ft
Heat Index 95 °F
Dew Point 80 °F
Humidity 89%
Rainfall 0.00 in
Snow Depth Not available.
UV 0.0 out of 12
Pollen Not available.
Air Quality Not available.
Flu Activity Not available.
METAR MMSD 290253Z 16005KT 12SM BKN250 31/22 A2983 RMK SLP087 52012 956 8/008 AC
Pressure 29.79 in
Visibility 12.0 miles
Clouds Mostly Cloudy 25000 ft
Heat Index 95 °F
Dew Point 80 °F
Humidity 89%
Rainfall 0.00 in
Snow Depth Not available.
UV 0.0 out of 12
Pollen Not available.
Air Quality Not available.
Flu Activity Not available.
METAR MMSD 290253Z 16005KT 12SM BKN250 31/22 A2983 RMK SLP087 52012 956 8/008 AC

10-Day Weather Forecast

×

Almanac

Astronomy

Aug. 28, 2015 Rise Set
Actual Time
Civil Twilight
Nautical Twilight
Astronomical Twilight
Moon
Length of Visible Light
Length of Day
Tomorrow will be .
, % of the Moon is Illuminated

Today's Extremes

Country Highs Country Lows

Community

WunderPhotos

Upload Photos

1,850,593 photos uploaded!

WunderBlogs® & News

Nearby

Air Quality

  Air Quality AQ Index Pollutant
Not available.

Snow Depth

Station Depth Elevation

Earthquake Activity

City Distance Mag. Time & Date
Minimum magnitude displayed is 2.5.

Coastal Water Temperatures

Place Temperature

Stations

Nearby Weather Stations

Station Location Temp. Windchill Dew Point Humidity Wind Precip. Elev Updated Type